sensor_id;sensor_type;location;lat;lon;timestamp;temperature;humidity
11304;DHT22;5707;49.588;12.148;2022-12-05T00:01:31;3.80;99.90
11304;DHT22;5707;49.588;12.148;2022-12-05T00:04:01;3.80;99.90
11304;DHT22;5707;49.588;12.148;2022-12-05T00:06:29;3.80;99.90
11304;DHT22;5707;49.588;12.148;2022-12-05T00:08:55;3.80;99.90
11304;DHT22;5707;49.588;12.148;2022-12-05T00:11:24;3.80;99.90
11304;DHT22;5707;49.588;12.148;2022-12-05T00:13:51;3.80;99.90
11304;DHT22;5707;49.588;12.148;2022-12-05T00:16:19;3.80;99.90
11304;DHT22;5707;49.588;12.148;2022-12-05T00:18:46;3.80;99.90
11304;DHT22;5707;49.588;12.148;2022-12-05T00:21:14;3.80;99.90
11304;DHT22;5707;49.588;12.148;2022-12-05T00:23:41;3.80;99.90
11304;DHT22;5707;49.588;12.148;2022-12-05T00:26:07;3.80;99.90
11304;DHT22;5707;49.588;12.148;2022-12-05T00:28:33;3.80;99.90
11304;DHT22;5707;49.588;12.148;2022-12-05T00:31:04;3.80;99.90
11304;DHT22;5707;49.588;12.148;2022-12-05T00:33:30;3.80;99.90
11304;DHT22;5707;49.588;12.148;2022-12-05T00:36:07;3.80;99.90
11304;DHT22;5707;49.588;12.148;2022-12-05T00:38:32;3.80;99.90
11304;DHT22;5707;49.588;12.148;2022-12-05T00:41:05;3.80;99.90
11304;DHT22;5707;49.588;12.148;2022-12-05T00:43:32;3.80;99.90
11304;DHT22;5707;49.588;12.148;2022-12-05T00:46:06;3.80;99.90
11304;DHT22;5707;49.588;12.148;2022-12-05T00:48:33;3.80;99.90
11304;DHT22;5707;49.588;12.148;2022-12-05T00:51:03;3.80;99.90
11304;DHT22;5707;49.588;12.148;2022-12-05T00:53:30;3.70;99.90
11304;DHT22;5707;49.588;12.148;2022-12-05T00:55:59;3.70;99.90
11304;DHT22;5707;49.588;12.148;2022-12-05T00:58:26;3.70;99.90
11304;DHT22;5707;49.588;12.148;2022-12-05T01:00:51;3.70;99.90
11304;DHT22;5707;49.588;12.148;2022-12-05T01:03:17;3.70;99.90
11304;DHT22;5707;49.588;12.148;2022-12-05T01:05:42;3.70;99.90
11304;DHT22;5707;49.588;12.148;2022-12-05T01:08:08;3.70;99.90
11304;DHT22;5707;49.588;12.148;2022-12-05T01:10:34;3.70;99.90
11304;DHT22;5707;49.588;12.148;2022-12-05T01:12:59;3.70;99.90
11304;DHT22;5707;49.588;12.148;2022-12-05T01:15:25;3.70;99.90
11304;DHT22;5707;49.588;12.148;2022-12-05T01:17:51;3.70;99.90
11304;DHT22;5707;49.588;12.148;2022-12-05T01:20:16;3.70;99.90
11304;DHT22;5707;49.588;12.148;2022-12-05T01:22:42;3.70;99.90
11304;DHT22;5707;49.588;12.148;2022-12-05T01:25:08;3.70;99.90
11304;DHT22;5707;49.588;12.148;2022-12-05T01:27:33;3.70;99.90
11304;DHT22;5707;49.588;12.148;2022-12-05T01:29:59;3.70;99.90
11304;DHT22;5707;49.588;12.148;2022-12-05T01:32:25;3.70;99.90
11304;DHT22;5707;49.588;12.148;2022-12-05T01:34:50;3.70;99.90
11304;DHT22;5707;49.588;12.148;2022-12-05T01:37:16;3.70;99.90
11304;DHT22;5707;49.588;12.148;2022-12-05T01:39:42;3.80;99.90
11304;DHT22;5707;49.588;12.148;2022-12-05T01:42:07;3.70;99.90
11304;DHT22;5707;49.588;12.148;2022-12-05T01:46:59;3.70;99.90
11304;DHT22;5707;49.588;12.148;2022-12-05T01:49:33;3.80;99.90
11304;DHT22;5707;49.588;12.148;2022-12-05T01:52:05;3.70;99.90
11304;DHT22;5707;49.588;12.148;2022-12-05T01:54:31;3.70;99.90
11304;DHT22;5707;49.588;12.148;2022-12-05T01:57:02;3.70;99.90
11304;DHT22;5707;49.588;12.148;2022-12-05T01:59:32;3.70;99.90
11304;DHT22;5707;49.588;12.148;2022-12-05T02:01:59;3.70;99.90
11304;DHT22;5707;49.588;12.148;2022-12-05T02:04:25;3.70;99.90
11304;DHT22;5707;49.588;12.148;2022-12-05T02:06:53;3.70;99.90
11304;DHT22;5707;49.588;12.148;2022-12-05T02:09:19;3.70;99.90
11304;DHT22;5707;49.588;12.148;2022-12-05T02:11:54;3.70;99.90
11304;DHT22;5707;49.588;12.148;2022-12-05T02:14:31;3.70;99.90
11304;DHT22;5707;49.588;12.148;2022-12-05T02:28:28;3.70;99.90
11304;DHT22;5707;49.588;12.148;2022-12-05T02:31:20;3.70;99.90
11304;DHT22;5707;49.588;12.148;2022-12-05T02:33:53;3.70;99.90
11304;DHT22;5707;49.588;12.148;2022-12-05T02:36:38;3.70;99.90
11304;DHT22;5707;49.588;12.148;2022-12-05T02:42:17;3.70;99.90
11304;DHT22;5707;49.588;12.148;2022-12-05T02:44:56;3.70;99.90
11304;DHT22;5707;49.588;12.148;2022-12-05T02:47:27;3.70;99.90
11304;DHT22;5707;49.588;12.148;2022-12-05T02:49:55;3.70;99.90
11304;DHT22;5707;49.588;12.148;2022-12-05T02:52:22;3.70;99.90
11304;DHT22;5707;49.588;12.148;2022-12-05T02:54:50;3.70;99.90
11304;DHT22;5707;49.588;12.148;2022-12-05T02:57:18;3.70;99.90
11304;DHT22;5707;49.588;12.148;2022-12-05T02:59:45;3.70;99.90
11304;DHT22;5707;49.588;12.148;2022-12-05T03:02:26;3.70;99.90
11304;DHT22;5707;49.588;12.148;2022-12-05T03:04:55;3.60;99.90
11304;DHT22;5707;49.588;12.148;2022-12-05T03:07:23;3.60;99.90
11304;DHT22;5707;49.588;12.148;2022-12-05T03:10:03;3.60;99.90
11304;DHT22;5707;49.588;12.148;2022-12-05T03:12:36;3.60;99.90
11304;DHT22;5707;49.588;12.148;2022-12-05T03:15:12;3.60;99.90
11304;DHT22;5707;49.588;12.148;2022-12-05T03:17:53;3.60;99.90
11304;DHT22;5707;49.588;12.148;2022-12-05T03:20:28;3.60;99.90
11304;DHT22;5707;49.588;12.148;2022-12-05T03:22:57;3.60;99.90
11304;DHT22;5707;49.588;12.148;2022-12-05T03:25:35;3.60;99.90
11304;DHT22;5707;49.588;12.148;2022-12-05T03:28:15;3.60;99.90
11304;DHT22;5707;49.588;12.148;2022-12-05T03:30:42;3.60;99.90
11304;DHT22;5707;49.588;12.148;2022-12-05T03:33:16;3.60;99.90
11304;DHT22;5707;49.588;12.148;2022-12-05T03:38:24;3.70;99.90
11304;DHT22;5707;49.588;12.148;2022-12-05T03:41:14;3.60;99.90
11304;DHT22;5707;49.588;12.148;2022-12-05T03:46:17;3.60;99.90
11304;DHT22;5707;49.588;12.148;2022-12-05T03:48:58;3.60;99.90
11304;DHT22;5707;49.588;12.148;2022-12-05T03:51:30;3.60;99.90
11304;DHT22;5707;49.588;12.148;2022-12-05T03:54:04;3.60;99.90
11304;DHT22;5707;49.588;12.148;2022-12-05T03:57:19;3.60;99.90
11304;DHT22;5707;49.588;12.148;2022-12-05T03:59:43;3.60;99.90
11304;DHT22;5707;49.588;12.148;2022-12-05T04:02:16;3.60;99.90
11304;DHT22;5707;49.588;12.148;2022-12-05T04:05:17;3.60;99.90
11304;DHT22;5707;49.588;12.148;2022-12-05T04:07:45;3.60;99.90
11304;DHT22;5707;49.588;12.148;2022-12-05T04:10:17;3.60;99.90
11304;DHT22;5707;49.588;12.148;2022-12-05T04:12:45;3.60;99.90
11304;DHT22;5707;49.588;12.148;2022-12-05T04:15:18;3.70;99.90
11304;DHT22;5707;49.588;12.148;2022-12-05T04:17:58;3.70;99.90
11304;DHT22;5707;49.588;12.148;2022-12-05T04:20:30;3.70;99.90
11304;DHT22;5707;49.588;12.148;2022-12-05T04:23:16;3.70;99.90
11304;DHT22;5707;49.588;12.148;2022-12-05T04:26:36;3.70;99.90
11304;DHT22;5707;49.588;12.148;2022-12-05T04:28:59;3.70;99.90
11304;DHT22;5707;49.588;12.148;2022-12-05T04:31:33;3.70;99.90
11304;DHT22;5707;49.588;12.148;2022-12-05T04:34:06;3.70;99.90
11304;DHT22;5707;49.588;12.148;2022-12-05T04:36:44;3.80;99.90
11304;DHT22;5707;49.588;12.148;2022-12-05T04:39:40;3.80;99.90
11304;DHT22;5707;49.588;12.148;2022-12-05T04:42:18;3.80;99.90
11304;DHT22;5707;49.588;12.148;2022-12-05T04:44:50;3.80;99.90
11304;DHT22;5707;49.588;12.148;2022-12-05T04:47:18;3.80;99.90
11304;DHT22;5707;49.588;12.148;2022-12-05T04:49:47;3.70;99.90
11304;DHT22;5707;49.588;12.148;2022-12-05T04:52:12;3.70;99.90
11304;DHT22;5707;49.588;12.148;2022-12-05T04:57:30;3.70;99.90
11304;DHT22;5707;49.588;12.148;2022-12-05T04:59:56;3.70;99.90
11304;DHT22;5707;49.588;12.148;2022-12-05T05:02:28;3.70;99.90
11304;DHT22;5707;49.588;12.148;2022-12-05T05:04:57;3.80;99.90
11304;DHT22;5707;49.588;12.148;2022-12-05T05:07:24;3.80;99.90
11304;DHT22;5707;49.588;12.148;2022-12-05T05:09:50;3.80;99.90
11304;DHT22;5707;49.588;12.148;2022-12-05T05:12:15;3.80;99.90
11304;DHT22;5707;49.588;12.148;2022-12-05T05:14:41;3.80;99.90
11304;DHT22;5707;49.588;12.148;2022-12-05T05:17:07;3.80;99.90
11304;DHT22;5707;49.588;12.148;2022-12-05T05:19:32;3.90;99.90
11304;DHT22;5707;49.588;12.148;2022-12-05T05:21:58;3.90;99.90
11304;DHT22;5707;49.588;12.148;2022-12-05T05:24:24;3.90;99.90
11304;DHT22;5707;49.588;12.148;2022-12-05T05:26:51;3.90;99.90
11304;DHT22;5707;49.588;12.148;2022-12-05T05:29:17;3.90;99.90
11304;DHT22;5707;49.588;12.148;2022-12-05T05:31:43;3.90;99.90
11304;DHT22;5707;49.588;12.148;2022-12-05T05:34:10;3.90;99.90
11304;DHT22;5707;49.588;12.148;2022-12-05T05:36:36;3.90;99.90
11304;DHT22;5707;49.588;12.148;2022-12-05T05:39:03;3.90;99.90
11304;DHT22;5707;49.588;12.148;2022-12-05T05:41:34;3.90;99.90
11304;DHT22;5707;49.588;12.148;2022-12-05T05:44:00;3.90;99.90
11304;DHT22;5707;49.588;12.148;2022-12-05T05:46:28;3.90;99.90
11304;DHT22;5707;49.588;12.148;2022-12-05T05:48:55;3.90;99.90
11304;DHT22;5707;49.588;12.148;2022-12-05T05:51:21;3.90;99.90
11304;DHT22;5707;49.588;12.148;2022-12-05T05:53:48;3.90;99.90
11304;DHT22;5707;49.588;12.148;2022-12-05T05:56:17;3.90;99.90
11304;DHT22;5707;49.588;12.148;2022-12-05T05:58:43;3.90;99.90
11304;DHT22;5707;49.588;12.148;2022-12-05T06:01:17;3.90;99.90
11304;DHT22;5707;49.588;12.148;2022-12-05T06:03:45;3.90;99.90
11304;DHT22;5707;49.588;12.148;2022-12-05T06:06:12;3.90;99.90
11304;DHT22;5707;49.588;12.148;2022-12-05T06:08:40;3.90;99.90
11304;DHT22;5707;49.588;12.148;2022-12-05T06:11:18;3.90;99.90
11304;DHT22;5707;49.588;12.148;2022-12-05T06:13:45;3.90;99.90
11304;DHT22;5707;49.588;12.148;2022-12-05T06:16:13;3.90;99.90
11304;DHT22;5707;49.588;12.148;2022-12-05T06:18:39;3.90;99.90
11304;DHT22;5707;49.588;12.148;2022-12-05T06:21:05;3.90;99.90
11304;DHT22;5707;49.588;12.148;2022-12-05T06:23:36;3.90;99.90
11304;DHT22;5707;49.588;12.148;2022-12-05T06:26:03;3.90;99.90
11304;DHT22;5707;49.588;12.148;2022-12-05T06:28:30;3.90;99.90
11304;DHT22;5707;49.588;12.148;2022-12-05T06:30:56;3.90;99.90
11304;DHT22;5707;49.588;12.148;2022-12-05T06:33:22;3.90;99.90
11304;DHT22;5707;49.588;12.148;2022-12-05T06:35:48;3.90;99.90
11304;DHT22;5707;49.588;12.148;2022-12-05T06:38:14;3.90;99.90
11304;DHT22;5707;49.588;12.148;2022-12-05T06:40:42;3.90;99.90
11304;DHT22;5707;49.588;12.148;2022-12-05T06:43:08;3.90;99.90
11304;DHT22;5707;49.588;12.148;2022-12-05T06:45:37;3.90;99.90
11304;DHT22;5707;49.588;12.148;2022-12-05T06:48:03;3.90;99.90
11304;DHT22;5707;49.588;12.148;2022-12-05T06:50:28;3.90;99.90
11304;DHT22;5707;49.588;12.148;2022-12-05T06:52:54;3.90;99.90
11304;DHT22;5707;49.588;12.148;2022-12-05T06:55:20;3.90;99.90
11304;DHT22;5707;49.588;12.148;2022-12-05T06:57:45;3.90;99.90
11304;DHT22;5707;49.588;12.148;2022-12-05T07:00:11;3.90;99.90
11304;DHT22;5707;49.588;12.148;2022-12-05T07:02:56;3.90;99.90
11304;DHT22;5707;49.588;12.148;2022-12-05T07:05:22;3.90;99.90
11304;DHT22;5707;49.588;12.148;2022-12-05T07:07:47;3.90;99.90
11304;DHT22;5707;49.588;12.148;2022-12-05T07:10:13;3.90;99.90
11304;DHT22;5707;49.588;12.148;2022-12-05T07:12:39;3.90;99.90
11304;DHT22;5707;49.588;12.148;2022-12-05T07:15:05;3.90;99.90
11304;DHT22;5707;49.588;12.148;2022-12-05T07:17:35;3.90;99.90
11304;DHT22;5707;49.588;12.148;2022-12-05T07:20:01;3.90;99.90
11304;DHT22;5707;49.588;12.148;2022-12-05T07:22:26;3.90;99.90
11304;DHT22;5707;49.588;12.148;2022-12-05T07:24:52;3.90;99.90
11304;DHT22;5707;49.588;12.148;2022-12-05T07:27:18;4.00;99.90
11304;DHT22;5707;49.588;12.148;2022-12-05T07:29:43;3.90;99.90
11304;DHT22;5707;49.588;12.148;2022-12-05T07:32:09;4.00;99.90
11304;DHT22;5707;49.588;12.148;2022-12-05T07:34:35;4.00;99.90
11304;DHT22;5707;49.588;12.148;2022-12-05T07:37:00;4.00;99.90
11304;DHT22;5707;49.588;12.148;2022-12-05T07:39:26;4.00;99.90
11304;DHT22;5707;49.588;12.148;2022-12-05T07:41:52;4.00;99.90
11304;DHT22;5707;49.588;12.148;2022-12-05T07:44:17;4.00;99.90
11304;DHT22;5707;49.588;12.148;2022-12-05T07:46:43;4.00;99.90
11304;DHT22;5707;49.588;12.148;2022-12-05T07:49:09;4.00;99.90
11304;DHT22;5707;49.588;12.148;2022-12-05T07:51:34;4.00;99.90
11304;DHT22;5707;49.588;12.148;2022-12-05T07:54:00;4.00;99.90
11304;DHT22;5707;49.588;12.148;2022-12-05T07:56:26;4.00;99.90
11304;DHT22;5707;49.588;12.148;2022-12-05T07:58:51;4.10;99.90
11304;DHT22;5707;49.588;12.148;2022-12-05T08:01:23;4.10;99.90
11304;DHT22;5707;49.588;12.148;2022-12-05T08:03:51;4.10;99.90
11304;DHT22;5707;49.588;12.148;2022-12-05T08:06:19;4.10;99.90
11304;DHT22;5707;49.588;12.148;2022-12-05T08:08:46;4.10;99.90
11304;DHT22;5707;49.588;12.148;2022-12-05T08:11:21;4.10;99.90
11304;DHT22;5707;49.588;12.148;2022-12-05T08:13:47;4.10;99.90
11304;DHT22;5707;49.588;12.148;2022-12-05T08:16:16;4.10;99.90
11304;DHT22;5707;49.588;12.148;2022-12-05T08:18:43;4.20;99.90
11304;DHT22;5707;49.588;12.148;2022-12-05T08:21:11;4.20;99.90
11304;DHT22;5707;49.588;12.148;2022-12-05T08:23:38;4.30;99.90
11304;DHT22;5707;49.588;12.148;2022-12-05T08:26:13;4.30;99.90
11304;DHT22;5707;49.588;12.148;2022-12-05T08:28:39;4.30;99.90
11304;DHT22;5707;49.588;12.148;2022-12-05T08:31:14;4.30;99.90
11304;DHT22;5707;49.588;12.148;2022-12-05T08:33:40;4.30;99.90
11304;DHT22;5707;49.588;12.148;2022-12-05T08:36:08;4.40;99.90
11304;DHT22;5707;49.588;12.148;2022-12-05T08:38:34;4.40;99.90
11304;DHT22;5707;49.588;12.148;2022-12-05T08:41:07;4.40;99.90
11304;DHT22;5707;49.588;12.148;2022-12-05T08:43:33;4.40;99.90
11304;DHT22;5707;49.588;12.148;2022-12-05T08:45:59;4.40;99.90
11304;DHT22;5707;49.588;12.148;2022-12-05T08:48:26;4.40;99.90
11304;DHT22;5707;49.588;12.148;2022-12-05T08:50:53;4.30;99.90
11304;DHT22;5707;49.588;12.148;2022-12-05T08:53:19;4.30;99.90
11304;DHT22;5707;49.588;12.148;2022-12-05T08:55:45;4.30;99.90
11304;DHT22;5707;49.588;12.148;2022-12-05T08:58:11;4.30;99.90
11304;DHT22;5707;49.588;12.148;2022-12-05T09:00:37;4.30;99.90
11304;DHT22;5707;49.588;12.148;2022-12-05T09:03:03;4.30;99.90
11304;DHT22;5707;49.588;12.148;2022-12-05T09:05:29;4.30;99.90
11304;DHT22;5707;49.588;12.148;2022-12-05T09:07:55;4.30;99.90
11304;DHT22;5707;49.588;12.148;2022-12-05T09:10:20;4.40;99.90
11304;DHT22;5707;49.588;12.148;2022-12-05T09:12:46;4.50;99.90
11304;DHT22;5707;49.588;12.148;2022-12-05T09:15:12;4.50;99.90
11304;DHT22;5707;49.588;12.148;2022-12-05T09:17:39;4.50;99.90
11304;DHT22;5707;49.588;12.148;2022-12-05T09:20:05;4.50;99.90
11304;DHT22;5707;49.588;12.148;2022-12-05T09:22:32;4.60;99.90
11304;DHT22;5707;49.588;12.148;2022-12-05T09:24:57;4.60;99.90
11304;DHT22;5707;49.588;12.148;2022-12-05T09:27:26;4.70;99.90
11304;DHT22;5707;49.588;12.148;2022-12-05T09:29:52;4.70;99.90
11304;DHT22;5707;49.588;12.148;2022-12-05T09:32:17;4.70;99.90
11304;DHT22;5707;49.588;12.148;2022-12-05T09:34:43;4.80;99.90
11304;DHT22;5707;49.588;12.148;2022-12-05T09:37:09;4.80;99.90
11304;DHT22;5707;49.588;12.148;2022-12-05T09:39:34;4.80;99.90
11304;DHT22;5707;49.588;12.148;2022-12-05T09:50:23;4.90;99.90
11304;DHT22;5707;49.588;12.148;2022-12-05T09:55:18;4.90;99.90
11304;DHT22;5707;49.588;12.148;2022-12-05T09:57:51;4.90;99.90
11304;DHT22;5707;49.588;12.148;2022-12-05T10:00:17;4.90;99.90
11304;DHT22;5707;49.588;12.148;2022-12-05T10:02:53;4.80;99.90
11304;DHT22;5707;49.588;12.148;2022-12-05T10:05:47;4.80;99.90
11304;DHT22;5707;49.588;12.148;2022-12-05T10:08:23;4.80;99.90
11304;DHT22;5707;49.588;12.148;2022-12-05T10:11:17;4.80;99.90
11304;DHT22;5707;49.588;12.148;2022-12-05T10:16:19;5.00;99.90
11304;DHT22;5707;49.588;12.148;2022-12-05T10:18:52;5.10;99.90
11304;DHT22;5707;49.588;12.148;2022-12-05T10:21:51;5.20;99.90
11304;DHT22;5707;49.588;12.148;2022-12-05T10:24:54;5.20;99.90
11304;DHT22;5707;49.588;12.148;2022-12-05T10:27:28;5.10;99.90
11304;DHT22;5707;49.588;12.148;2022-12-05T10:30:26;5.00;99.90
11304;DHT22;5707;49.588;12.148;2022-12-05T10:33:01;4.90;99.90
11304;DHT22;5707;49.588;12.148;2022-12-05T10:35:38;4.70;99.90
11304;DHT22;5707;49.588;12.148;2022-12-05T10:38:05;4.70;99.90
11304;DHT22;5707;49.588;12.148;2022-12-05T10:40:40;4.70;99.90
11304;DHT22;5707;49.588;12.148;2022-12-05T10:43:10;4.70;99.90
11304;DHT22;5707;49.588;12.148;2022-12-05T10:45:44;4.70;99.90
11304;DHT22;5707;49.588;12.148;2022-12-05T10:48:13;4.70;99.90
11304;DHT22;5707;49.588;12.148;2022-12-05T10:50:39;4.70;99.90
11304;DHT22;5707;49.588;12.148;2022-12-05T10:53:07;4.70;99.90
11304;DHT22;5707;49.588;12.148;2022-12-05T10:55:40;4.70;99.90
11304;DHT22;5707;49.588;12.148;2022-12-05T10:58:15;4.60;99.90
11304;DHT22;5707;49.588;12.148;2022-12-05T11:00:46;4.60;99.90
11304;DHT22;5707;49.588;12.148;2022-12-05T11:03:33;4.60;99.90
11304;DHT22;5707;49.588;12.148;2022-12-05T11:06:02;4.70;99.90
11304;DHT22;5707;49.588;12.148;2022-12-05T11:08:39;4.70;99.90
11304;DHT22;5707;49.588;12.148;2022-12-05T11:11:05;4.80;99.90
11304;DHT22;5707;49.588;12.148;2022-12-05T11:13:33;4.80;99.90
11304;DHT22;5707;49.588;12.148;2022-12-05T11:15:59;4.80;99.90
11304;DHT22;5707;49.588;12.148;2022-12-05T11:18:30;4.80;99.90
11304;DHT22;5707;49.588;12.148;2022-12-05T11:21:10;4.80;99.90
11304;DHT22;5707;49.588;12.148;2022-12-05T11:23:36;4.80;99.90
11304;DHT22;5707;49.588;12.148;2022-12-05T11:26:02;4.80;99.90
11304;DHT22;5707;49.588;12.148;2022-12-05T11:28:29;4.80;99.90
11304;DHT22;5707;49.588;12.148;2022-12-05T11:33:31;4.80;99.90
11304;DHT22;5707;49.588;12.148;2022-12-05T11:36:09;4.80;99.90
11304;DHT22;5707;49.588;12.148;2022-12-05T11:38:37;4.80;99.90
11304;DHT22;5707;49.588;12.148;2022-12-05T11:44:36;4.90;99.90
11304;DHT22;5707;49.588;12.148;2022-12-05T11:49:57;5.00;99.90
11304;DHT22;5707;49.588;12.148;2022-12-05T11:53:22;5.10;99.90
11304;DHT22;5707;49.588;12.148;2022-12-05T11:55:28;5.20;99.90
11304;DHT22;5707;49.588;12.148;2022-12-05T12:00:48;5.20;99.90
11304;DHT22;5707;49.588;12.148;2022-12-05T12:11:48;4.90;99.90
11304;DHT22;5707;49.588;12.148;2022-12-05T12:22:17;4.70;99.90
11304;DHT22;5707;49.588;12.148;2022-12-05T12:28:06;4.60;99.90
11304;DHT22;5707;49.588;12.148;2022-12-05T12:33:30;4.50;99.90
11304;DHT22;5707;49.588;12.148;2022-12-05T12:36:15;4.50;99.90
11304;DHT22;5707;49.588;12.148;2022-12-05T12:39:14;4.40;99.90
11304;DHT22;5707;49.588;12.148;2022-12-05T12:46:58;4.50;99.90
11304;DHT22;5707;49.588;12.148;2022-12-05T12:52:23;4.90;99.90
11304;DHT22;5707;49.588;12.148;2022-12-05T12:55:20;5.00;99.90
11304;DHT22;5707;49.588;12.148;2022-12-05T12:57:59;5.10;99.90
11304;DHT22;5707;49.588;12.148;2022-12-05T13:00:43;5.00;99.90
11304;DHT22;5707;49.588;12.148;2022-12-05T13:05:50;4.90;99.90
11304;DHT22;5707;49.588;12.148;2022-12-05T13:08:49;4.80;99.90
11304;DHT22;5707;49.588;12.148;2022-12-05T13:11:19;4.80;99.90
11304;DHT22;5707;49.588;12.148;2022-12-05T13:13:49;4.70;99.90
11304;DHT22;5707;49.588;12.148;2022-12-05T13:16:31;4.60;99.90
11304;DHT22;5707;49.588;12.148;2022-12-05T13:18:59;4.60;99.90
11304;DHT22;5707;49.588;12.148;2022-12-05T13:21:26;4.50;99.90
11304;DHT22;5707;49.588;12.148;2022-12-05T13:23:55;4.50;99.90
11304;DHT22;5707;49.588;12.148;2022-12-05T13:26:23;4.50;99.90
11304;DHT22;5707;49.588;12.148;2022-12-05T13:28:54;4.50;99.90
11304;DHT22;5707;49.588;12.148;2022-12-05T13:31:40;4.50;99.90
11304;DHT22;5707;49.588;12.148;2022-12-05T13:36:51;4.50;99.90
11304;DHT22;5707;49.588;12.148;2022-12-05T13:39:37;4.50;99.90
11304;DHT22;5707;49.588;12.148;2022-12-05T13:42:27;4.50;99.90
11304;DHT22;5707;49.588;12.148;2022-12-05T13:50:28;4.50;99.90
11304;DHT22;5707;49.588;12.148;2022-12-05T13:53:03;4.60;99.90
11304;DHT22;5707;49.588;12.148;2022-12-05T13:55:36;4.60;99.90
11304;DHT22;5707;49.588;12.148;2022-12-05T14:00:49;4.40;99.90
11304;DHT22;5707;49.588;12.148;2022-12-05T14:09:00;4.00;99.90
11304;DHT22;5707;49.588;12.148;2022-12-05T14:11:26;3.90;99.90
11304;DHT22;5707;49.588;12.148;2022-12-05T14:13:52;3.90;99.90
11304;DHT22;5707;49.588;12.148;2022-12-05T14:22:16;3.70;99.90
11304;DHT22;5707;49.588;12.148;2022-12-05T14:25:02;3.60;99.90
11304;DHT22;5707;49.588;12.148;2022-12-05T14:27:48;3.60;99.90
11304;DHT22;5707;49.588;12.148;2022-12-05T14:32:54;3.50;99.90
11304;DHT22;5707;49.588;12.148;2022-12-05T14:38:17;3.50;99.90
11304;DHT22;5707;49.588;12.148;2022-12-05T14:40:45;3.50;99.90
11304;DHT22;5707;49.588;12.148;2022-12-05T14:43:26;3.50;99.90
11304;DHT22;5707;49.588;12.148;2022-12-05T14:45:55;3.50;99.90
11304;DHT22;5707;49.588;12.148;2022-12-05T14:48:35;3.50;99.90
11304;DHT22;5707;49.588;12.148;2022-12-05T14:56:49;3.40;99.90
11304;DHT22;5707;49.588;12.148;2022-12-05T15:01:55;3.30;99.90
11304;DHT22;5707;49.588;12.148;2022-12-05T15:04:31;3.20;99.90
11304;DHT22;5707;49.588;12.148;2022-12-05T15:09:53;3.20;99.90
11304;DHT22;5707;49.588;12.148;2022-12-05T15:12:22;3.10;99.90
11304;DHT22;5707;49.588;12.148;2022-12-05T15:31:28;3.00;99.90
11304;DHT22;5707;49.588;12.148;2022-12-05T15:33:57;3.00;99.90
11304;DHT22;5707;49.588;12.148;2022-12-05T15:36:28;3.00;99.90
11304;DHT22;5707;49.588;12.148;2022-12-05T15:38:56;2.90;99.90
11304;DHT22;5707;49.588;12.148;2022-12-05T15:41:22;2.90;99.90
11304;DHT22;5707;49.588;12.148;2022-12-05T15:43:57;2.90;99.90
11304;DHT22;5707;49.588;12.148;2022-12-05T15:46:26;2.90;99.90
11304;DHT22;5707;49.588;12.148;2022-12-05T15:48:54;2.90;99.90
11304;DHT22;5707;49.588;12.148;2022-12-05T15:51:26;2.90;99.90
11304;DHT22;5707;49.588;12.148;2022-12-05T15:54:15;2.90;99.90
11304;DHT22;5707;49.588;12.148;2022-12-05T15:57:06;2.90;99.90
11304;DHT22;5707;49.588;12.148;2022-12-05T16:00:18;2.90;99.90
11304;DHT22;5707;49.588;12.148;2022-12-05T16:02:23;2.90;99.90
11304;DHT22;5707;49.588;12.148;2022-12-05T16:04:52;2.90;99.90
11304;DHT22;5707;49.588;12.148;2022-12-05T16:07:20;2.90;99.90
11304;DHT22;5707;49.588;12.148;2022-12-05T16:09:46;2.90;99.90
11304;DHT22;5707;49.588;12.148;2022-12-05T16:12:38;2.90;99.90
11304;DHT22;5707;49.588;12.148;2022-12-05T16:15:14;2.90;99.90
11304;DHT22;5707;49.588;12.148;2022-12-05T16:17:45;2.90;99.90
11304;DHT22;5707;49.588;12.148;2022-12-05T16:22:44;2.90;99.90
11304;DHT22;5707;49.588;12.148;2022-12-05T16:25:14;2.90;99.90
11304;DHT22;5707;49.588;12.148;2022-12-05T16:27:40;2.90;99.90
11304;DHT22;5707;49.588;12.148;2022-12-05T16:32:37;2.90;99.90
11304;DHT22;5707;49.588;12.148;2022-12-05T16:35:22;2.90;99.90
11304;DHT22;5707;49.588;12.148;2022-12-05T16:37:49;2.90;99.90
11304;DHT22;5707;49.588;12.148;2022-12-05T16:40:20;2.90;99.90
11304;DHT22;5707;49.588;12.148;2022-12-05T16:43:03;3.00;99.90
11304;DHT22;5707;49.588;12.148;2022-12-05T16:45:45;3.00;99.90
11304;DHT22;5707;49.588;12.148;2022-12-05T16:48:18;3.00;99.90
11304;DHT22;5707;49.588;12.148;2022-12-05T16:50:45;3.00;99.90
11304;DHT22;5707;49.588;12.148;2022-12-05T16:53:21;3.00;99.90
11304;DHT22;5707;49.588;12.148;2022-12-05T16:55:51;3.00;99.90
11304;DHT22;5707;49.588;12.148;2022-12-05T16:58:20;3.00;99.90
11304;DHT22;5707;49.588;12.148;2022-12-05T17:00:47;3.10;99.90
11304;DHT22;5707;49.588;12.148;2022-12-05T17:03:13;3.00;99.90
11304;DHT22;5707;49.588;12.148;2022-12-05T17:05:39;3.00;99.90
11304;DHT22;5707;49.588;12.148;2022-12-05T17:08:05;3.00;99.90
11304;DHT22;5707;49.588;12.148;2022-12-05T17:10:30;3.00;99.90
11304;DHT22;5707;49.588;12.148;2022-12-05T17:12:57;3.00;99.90
11304;DHT22;5707;49.588;12.148;2022-12-05T17:15:24;3.00;99.90
11304;DHT22;5707;49.588;12.148;2022-12-05T17:17:50;3.10;99.90
11304;DHT22;5707;49.588;12.148;2022-12-05T17:20:16;3.00;99.90
11304;DHT22;5707;49.588;12.148;2022-12-05T17:22:41;3.10;99.90
11304;DHT22;5707;49.588;12.148;2022-12-05T17:25:27;3.10;99.90
11304;DHT22;5707;49.588;12.148;2022-12-05T17:27:56;3.00;99.90
11304;DHT22;5707;49.588;12.148;2022-12-05T17:30:22;3.10;99.90
11304;DHT22;5707;49.588;12.148;2022-12-05T17:32:47;3.10;99.90
11304;DHT22;5707;49.588;12.148;2022-12-05T17:35:18;3.10;99.90
11304;DHT22;5707;49.588;12.148;2022-12-05T17:37:44;3.10;99.90
11304;DHT22;5707;49.588;12.148;2022-12-05T17:40:10;3.10;99.90
11304;DHT22;5707;49.588;12.148;2022-12-05T17:42:40;3.10;99.90
11304;DHT22;5707;49.588;12.148;2022-12-05T17:45:12;3.10;99.90
11304;DHT22;5707;49.588;12.148;2022-12-05T17:47:38;3.10;99.90
11304;DHT22;5707;49.588;12.148;2022-12-05T17:50:05;3.10;99.90
11304;DHT22;5707;49.588;12.148;2022-12-05T17:52:31;3.10;99.90
11304;DHT22;5707;49.588;12.148;2022-12-05T17:54:57;3.10;99.90
11304;DHT22;5707;49.588;12.148;2022-12-05T17:57:23;3.00;99.90
11304;DHT22;5707;49.588;12.148;2022-12-05T17:59:48;3.00;99.90
11304;DHT22;5707;49.588;12.148;2022-12-05T18:02:14;3.00;99.90
11304;DHT22;5707;49.588;12.148;2022-12-05T18:04:41;3.00;99.90
11304;DHT22;5707;49.588;12.148;2022-12-05T18:07:07;3.00;99.90
11304;DHT22;5707;49.588;12.148;2022-12-05T18:09:33;3.00;99.90
11304;DHT22;5707;49.588;12.148;2022-12-05T18:11:58;3.00;99.90
11304;DHT22;5707;49.588;12.148;2022-12-05T18:14:24;3.00;99.90
11304;DHT22;5707;49.588;12.148;2022-12-05T18:16:51;3.00;99.90
11304;DHT22;5707;49.588;12.148;2022-12-05T18:19:18;3.00;99.90
11304;DHT22;5707;49.588;12.148;2022-12-05T18:21:43;3.00;99.90
11304;DHT22;5707;49.588;12.148;2022-12-05T18:24:09;3.00;99.90
11304;DHT22;5707;49.588;12.148;2022-12-05T18:26:35;3.00;99.90
11304;DHT22;5707;49.588;12.148;2022-12-05T18:29:01;3.00;99.90
11304;DHT22;5707;49.588;12.148;2022-12-05T18:31:26;3.00;99.90